Time;durP1;ratioP1;P1;durP2;ratioP2;P2;SDS_P1;SDS_P2;PMS_P1;PMS_P2;Temp;Humidity;BMP_temperature;BMP_pressure;BME280_temperature;BME280_humidity;BME280_pressure;Samples;Min_cycle;Max_cycle;Signal;HPM_P1;HPM_P2
2023/01/19 00:00:04;;;;;;;23.35;4.40;;;;;;;11.51;52.17;92387.00;5031628;28;20025;-40
2023/01/19 00:02:29;;;;;;;19.45;4.38;;;;;;;11.44;52.07;92416.25;5031664;28;20025;-40
2023/01/19 00:04:55;;;;;;;28.92;4.63;;;;;;;11.43;52.04;92415.50;5031867;28;20036;-40
2023/01/19 00:07:21;;;;;;;20.38;4.03;;;;;;;11.28;52.29;92407.47;5031554;28;20417;-40
2023/01/19 00:09:46;;;;;;;16.88;5.35;;;;;;;11.36;52.14;92427.44;5031381;28;20029;-40
2023/01/19 00:12:11;;;;;;;28.23;6.13;;;;;;;11.12;52.86;92409.06;5031273;28;20021;-40
2023/01/19 00:14:37;;;;;;;21.92;3.28;;;;;;;11.23;52.12;92393.97;5031374;28;20025;-40
2023/01/19 00:17:02;;;;;;;19.48;4.40;;;;;;;11.24;52.39;92398.91;5031172;28;20075;-40
2023/01/19 00:19:28;;;;;;;33.70;4.65;;;;;;;11.26;51.81;92395.56;5030881;28;20025;-40
2023/01/19 00:21:53;;;;;;;25.73;5.00;;;;;;;11.28;52.18;92392.97;5031377;28;20017;-40
2023/01/19 00:24:19;;;;;;;34.47;5.72;;;;;;;11.21;52.13;92404.84;5031162;28;20485;-40
2023/01/19 00:26:44;;;;;;;16.02;4.10;;;;;;;11.11;52.42;92402.06;5029855;28;20037;-40
2023/01/19 00:29:10;;;;;;;20.83;4.93;;;;;;;11.20;52.09;92400.63;5031234;28;20037;-39
2023/01/19 00:31:36;;;;;;;18.77;3.45;;;;;;;11.07;52.45;92398.25;5031119;28;20033;-40
2023/01/19 00:34:02;;;;;;;23.50;6.13;;;;;;;10.95;53.23;92411.19;5029847;28;20033;-39
2023/01/19 00:36:28;;;;;;;21.83;4.35;;;;;;;11.04;52.51;92427.06;5030877;28;20053;-40
2023/01/19 00:38:53;;;;;;;22.33;4.20;;;;;;;10.84;53.26;92420.00;5030709;28;20480;-40
2023/01/19 00:42:38;;;;;;;21.50;5.35;;;;;;;10.87;53.29;92416.09;5030579;28;20041;-40
2023/01/19 00:44:04;;;;;;;29.02;4.75;;;;;;;10.87;53.13;92429.91;5030767;28;20508;-40
2023/01/19 00:46:30;;;;;;;31.08;5.03;;;;;;;10.82;53.15;92431.63;5030857;28;20108;-40
2023/01/19 00:48:55;;;;;;;30.85;6.72;;;;;;;10.85;53.12;92435.97;5030811;28;20591;-40
2023/01/19 00:51:21;;;;;;;18.25;4.82;;;;;;;10.65;53.23;92446.19;5030509;28;20030;-40
2023/01/19 00:53:46;;;;;;;26.10;5.35;;;;;;;10.86;52.79;92439.47;5030679;28;20017;-40
2023/01/19 00:56:12;;;;;;;23.27;5.28;;;;;;;10.90;51.83;92423.22;5031031;28;20029;-40
2023/01/19 00:58:37;;;;;;;14.60;5.13;;;;;;;10.98;51.24;92432.13;5030666;28;20052;-40
2023/01/19 01:01:03;;;;;;;17.35;3.35;;;;;;;11.36;50.23;92435.00;5029892;28;20409;-40
2023/01/19 01:03:29;;;;;;;31.92;6.15;;;;;;;11.39;50.21;92426.28;5028921;28;20059;-40
2023/01/19 01:05:54;;;;;;;30.00;6.40;;;;;;;11.23;50.88;92438.91;5030848;28;20053;-39
2023/01/19 01:08:20;;;;;;;26.52;4.55;;;;;;;11.28;50.70;92431.63;5030465;28;20025;-40
2023/01/19 01:10:45;;;;;;;17.48;4.75;;;;;;;11.36;50.04;92441.25;5030272;28;20033;-40
2023/01/19 01:13:11;;;;;;;17.67;4.78;;;;;;;11.35;50.20;92428.00;5030320;28;20013;-39
2023/01/19 01:15:36;;;;;;;26.20;5.10;;;;;;;11.30;50.63;92426.25;5030445;28;20409;-40
2023/01/19 01:18:01;;;;;;;14.35;3.50;;;;;;;11.34;50.35;92418.28;5030676;28;20025;-40
2023/01/19 01:20:29;;;;;;;26.27;4.28;;;;;;;11.40;50.10;92416.69;5029890;28;20029;-39
2023/01/19 01:22:55;;;;;;;24.48;5.68;;;;;;;11.37;50.52;92428.88;5029779;28;20064;-40
2023/01/19 01:25:22;;;;;;;21.38;5.68;;;;;;;11.28;50.62;92440.63;5030091;28;20413;-40
2023/01/19 01:27:47;;;;;;;26.17;5.50;;;;;;;11.32;50.59;92437.47;5030078;28;20052;-40
2023/01/19 01:30:13;;;;;;;17.45;3.97;;;;;;;11.20;50.79;92426.22;5030251;28;20831;-40
2023/01/19 01:32:39;;;;;;;22.85;4.30;;;;;;;11.26;50.14;92414.91;5029769;28;20033;-40
2023/01/19 01:35:05;;;;;;;29.25;5.70;;;;;;;11.26;49.93;92421.16;5029703;28;20030;-40
2023/01/19 01:37:31;;;;;;;22.33;5.65;;;;;;;11.80;46.57;92421.69;5030024;28;20094;-40
2023/01/19 01:39:56;;;;;;;24.02;4.47;;;;;;;11.57;48.45;92435.19;5028594;28;20018;-40
2023/01/19 01:42:29;;;;;;;17.17;3.80;;;;;;;11.73;48.51;92430.88;5029511;28;20068;-40
2023/01/19 01:44:56;;;;;;;15.60;3.53;;;;;;;11.66;48.62;92419.91;5029114;28;20026;-40
2023/01/19 01:47:27;;;;;;;17.70;3.50;;;;;;;11.68;48.13;92431.16;5029715;28;20464;-40
2023/01/19 01:49:59;;;;;;;22.35;4.35;;;;;;;11.67;48.19;92418.66;5029779;28;20524;-40
2023/01/19 01:52:26;;;;;;;22.05;4.28;;;;;;;11.39;49.23;92434.56;5029862;28;20032;-40
2023/01/19 01:54:52;;;;;;;23.30;4.90;;;;;;;11.35;48.57;92412.16;5029284;28;20029;-40
2023/01/19 01:57:18;;;;;;;14.00;2.92;;;;;;;11.52;47.81;92425.13;5029160;28;20033;-40
2023/01/19 01:59:45;;;;;;;15.20;4.10;;;;;;;11.57;48.28;92445.50;5028574;28;20018;-40
2023/01/19 02:05:08;;;;;;;19.88;3.80;;;;;;;11.48;48.47;92460.75;5028210;28;20091;-39
2023/01/19 02:13:25;;;;;;;27.35;4.57;;;;;;;11.26;49.73;92459.13;5027820;28;20563;-40
2023/01/19 02:15:53;;;;;;;16.00;4.07;;;;;;;11.41;49.28;92458.88;5027691;28;20022;-40
2023/01/19 02:18:21;;;;;;;20.98;4.05;;;;;;;11.36;49.10;92459.88;5028948;28;20151;-40
2023/01/19 02:21:17;;;;;;;23.60;4.65;;;;;;;11.19;50.03;92465.50;5027761;28;20033;-40
2023/01/19 02:23:44;;;;;;;18.13;4.07;;;;;;;11.20;50.10;92453.84;5002186;28;20502;-39
2023/01/19 02:26:15;;;;;;;20.60;2.47;;;;;;;11.38;49.79;92443.44;5027920;28;20039;-40
2023/01/19 02:28:43;;;;;;;16.88;3.88;;;;;;;11.54;49.12;92452.22;5027579;28;20033;-40
2023/01/19 02:31:09;;;;;;;26.50;4.17;;;;;;;11.45;49.50;92450.88;5028943;28;20022;-40
2023/01/19 02:33:35;;;;;;;20.83;4.88;;;;;;;11.40;49.78;92438.78;5028105;28;20036;-40
2023/01/19 02:36:01;;;;;;;30.83;4.03;;;;;;;11.35;49.90;92442.56;5041773;28;20536;-40
2023/01/19 02:38:27;;;;;;;20.52;4.10;;;;;;;11.27;50.02;92447.47;5048958;28;20051;-40
2023/01/19 02:40:58;;;;;;;18.67;5.03;;;;;;;11.26;50.05;92451.53;5047722;28;20040;-40
2023/01/19 02:43:24;;;;;;;16.13;4.15;;;;;;;10.96;50.77;92437.50;5047545;28;20508;-40
2023/01/19 02:45:49;;;;;;;20.55;4.93;;;;;;;11.09;50.37;92446.09;5036509;28;20032;-40
2023/01/19 02:48:17;;;;;;;15.00;3.00;;;;;;;11.04;50.62;92440.88;5028938;28;20705;-40
2023/01/19 02:50:48;;;;;;;23.58;4.50;;;;;;;10.89;51.01;92441.84;5027776;28;20025;-40
2023/01/19 02:53:31;;;;;;;22.98;5.53;;;;;;;10.84;51.13;92453.13;5028936;28;20026;-40
2023/01/19 02:56:08;;;;;;;23.88;5.18;;;;;;;10.79;51.30;92454.84;5028630;28;20029;-40
2023/01/19 02:58:52;;;;;;;26.63;3.38;;;;;;;10.86;51.40;92440.22;5027633;28;20741;-40
2023/01/19 03:01:17;;;;;;;23.35;4.95;;;;;;;10.95;50.87;92439.53;5028566;28;20028;-40
2023/01/19 03:04:21;;;;;;;17.25;3.08;;;;;;;11.02;50.62;92446.94;5028721;28;20029;-40
2023/01/19 03:06:54;;;;;;;22.00;3.95;;;;;;;10.80;51.34;92466.63;5016385;28;20049;-40
2023/01/19 03:09:47;;;;;;;38.85;6.32;;;;;;;10.67;51.71;92453.94;5027451;28;20021;-40
2023/01/19 03:12:28;;;;;;;11.20;3.45;;;;;;;10.94;50.94;92454.63;5029034;28;20156;-40
2023/01/19 03:14:58;;;;;;;18.92;4.80;;;;;;;10.96;50.73;92445.78;5028522;28;20022;-40
2023/01/19 03:17:25;;;;;;;16.58;2.35;;;;;;;10.90;50.97;92442.53;5027414;28;20095;-40
2023/01/19 03:19:51;;;;;;;23.88;4.70;;;;;;;10.87;51.02;92449.94;5035886;28;20017;-39
2023/01/19 03:22:27;;;;;;;28.33;4.15;;;;;;;10.95;50.62;92449.84;5047320;28;20096;-40
2023/01/19 03:24:55;;;;;;;27.17;3.80;;;;;;;10.95;50.46;92461.63;5036964;28;20588;-40
2023/01/19 03:27:33;;;;;;;23.25;4.80;;;;;;;10.86;50.87;92447.75;5031036;28;20092;-40
2023/01/19 03:30:01;;;;;;;21.98;4.10;;;;;;;10.98;50.40;92459.75;5030997;28;20021;-40
2023/01/19 03:32:31;;;;;;;22.98;4.20;;;;;;;11.10;50.19;92466.19;5011334;28;20033;-39
2023/01/19 03:35:02;;;;;;;19.45;3.65;;;;;;;10.96;50.70;92454.78;5020240;28;20524;-40
2023/01/19 03:37:28;;;;;;;17.23;2.90;;;;;;;11.05;50.02;92432.00;5050816;28;20029;-39
2023/01/19 03:39:55;;;;;;;21.15;4.38;;;;;;;10.96;50.51;92434.75;5031865;28;20021;-40
2023/01/19 03:42:23;;;;;;;17.33;3.10;;;;;;;11.11;49.99;92446.25;5030552;28;20433;-40
2023/01/19 03:44:51;;;;;;;30.55;4.57;;;;;;;10.99;50.70;92439.09;5030582;28;20471;-40
2023/01/19 03:47:18;;;;;;;22.08;4.82;;;;;;;10.87;50.78;92446.47;5032019;28;20035;-40
2023/01/19 03:49:44;;;;;;;23.02;3.33;;;;;;;10.82;51.26;92439.91;5031994;28;20420;-40
2023/01/19 03:52:10;;;;;;;24.55;5.13;;;;;;;10.72;51.38;92446.69;5031639;28;20087;-40
2023/01/19 03:54:35;;;;;;;20.13;3.25;;;;;;;10.65;51.37;92456.53;5030702;28;20033;-40
2023/01/19 03:57:01;;;;;;;34.58;3.65;;;;;;;10.77;51.08;92454.69;5030882;28;20025;-40
2023/01/19 03:59:26;;;;;;;19.33;3.97;;;;;;;10.78;51.02;92458.19;5031489;28;20274;-40
2023/01/19 04:01:52;;;;;;;19.63;3.65;;;;;;;10.77;51.07;92457.47;5031701;28;20029;-40
2023/01/19 04:04:17;;;;;;;22.23;3.50;;;;;;;10.63;51.28;92454.31;5031566;28;20037;-40
2023/01/19 04:06:43;;;;;;;22.33;4.35;;;;;;;10.70;51.06;92450.00;5031662;28;20029;-40
2023/01/19 04:09:08;;;;;;;17.67;3.83;;;;;;;10.76;51.19;92456.00;5031578;28;20030;-40
2023/01/19 04:11:34;;;;;;;18.67;3.15;;;;;;;10.52;51.70;92454.88;5031285;28;20544;-40
2023/01/19 04:14:00;;;;;;;16.40;3.83;;;;;;;10.56;51.63;92462.72;5031502;28;20108;-40
2023/01/19 04:16:25;;;;;;;23.95;3.53;;;;;;;10.56;51.86;92457.94;5031795;28;20090;-40
2023/01/19 04:18:51;;;;;;;28.75;4.43;;;;;;;10.68;51.40;92455.38;5031568;28;20025;-39
2023/01/19 04:21:19;;;;;;;27.23;4.30;;;;;;;10.41;52.52;92457.41;5031142;28;20390;-40
2023/01/19 04:23:44;;;;;;;27.73;3.97;;;;;;;10.36;52.54;92453.59;5031237;28;20048;-40
2023/01/19 04:26:10;;;;;;;13.63;3.10;;;;;;;10.55;52.20;92447.44;5031403;28;20602;-40
2023/01/19 04:28:36;;;;;;;22.10;3.88;;;;;;;10.48;52.21;92453.81;5031252;28;20470;-40
2023/01/19 04:31:01;;;;;;;16.55;3.40;;;;;;;10.45;52.18;92454.97;5031076;28;20112;-40
2023/01/19 04:33:27;;;;;;;45.30;4.68;;;;;;;10.36;52.80;92464.63;5031088;28;20580;-40
2023/01/19 04:35:53;;;;;;;17.77;3.63;;;;;;;10.51;52.44;92463.69;5042729;28;20532;-40
2023/01/19 04:38:18;;;;;;;27.40;3.50;;;;;;;10.47;52.15;92463.38;5045944;28;20068;-40
2023/01/19 04:40:44;;;;;;;26.85;3.88;;;;;;;10.49;52.54;92456.00;5030848;28;20453;-40
2023/01/19 04:43:10;;;;;;;21.10;3.10;;;;;;;10.46;52.40;92457.13;5030534;28;20040;-40
2023/01/19 04:45:35;;;;;;;12.50;3.00;;;;;;;10.30;52.65;92458.66;5030360;28;20049;-41
2023/01/19 04:48:03;;;;;;;25.02;4.10;;;;;;;10.16;53.21;92454.75;5029938;28;20497;-40
2023/01/19 04:50:29;;;;;;;23.70;2.63;;;;;;;10.29;52.51;92443.38;5030595;28;20143;-40
2023/01/19 04:52:54;;;;;;;19.13;3.33;;;;;;;10.19;52.71;92441.88;5030550;28;20069;-40
2023/01/19 04:55:19;;;;;;;18.15;3.90;;;;;;;10.27;52.17;92445.97;5030398;28;20066;-40
2023/01/19 04:57:45;;;;;;;22.98;4.18;;;;;;;10.32;51.97;92444.28;5030824;28;20037;-40
2023/01/19 05:00:11;;;;;;;15.48;4.00;;;;;;;10.47;51.52;92446.84;5030430;28;20067;-40
2023/01/19 05:02:36;;;;;;;19.08;2.83;;;;;;;10.66;50.68;92438.66;5030279;28;20021;-40
2023/01/19 05:05:02;;;;;;;18.38;3.80;;;;;;;10.54;51.24;92446.00;5030255;28;20029;-40
2023/01/19 05:07:28;;;;;;;16.70;3.28;;;;;;;10.73;50.60;92445.38;5030147;28;20029;-40
2023/01/19 05:09:53;;;;;;;19.73;2.42;;;;;;;10.84;50.44;92436.56;5030466;28;20049;-41
2023/01/19 05:12:19;;;;;;;15.70;2.47;;;;;;;10.89;50.29;92441.84;5030131;28;20025;-40
2023/01/19 05:14:44;;;;;;;27.00;3.33;;;;;;;10.94;49.83;92437.31;5030182;28;20060;-40
2023/01/19 05:17:10;;;;;;;15.48;3.55;;;;;;;10.81;50.91;92432.19;5029970;28;20029;-40
2023/01/19 05:19:36;;;;;;;19.23;3.05;;;;;;;11.04;49.57;92435.34;5030155;28;20022;-39
2023/01/19 05:22:02;;;;;;;26.70;3.50;;;;;;;11.02;49.85;92437.94;5029812;28;20104;-40
2023/01/19 05:24:28;;;;;;;20.30;2.65;;;;;;;11.16;49.27;92439.00;5029809;28;20094;-40
2023/01/19 05:26:54;;;;;;;22.73;3.83;;;;;;;11.20;49.25;92453.13;5030078;28;20472;-40
2023/01/19 05:29:19;;;;;;;17.38;3.88;;;;;;;10.98;49.48;92443.19;5029997;28;20713;-40
2023/01/19 05:31:44;;;;;;;16.88;3.85;;;;;;;10.88;50.23;92456.94;5029806;28;20036;-40
2023/01/19 05:34:10;;;;;;;27.15;4.88;;;;;;;11.01;49.87;92458.56;5029666;28;20033;-40
2023/01/19 05:36:36;;;;;;;21.75;3.47;;;;;;;10.96;50.22;92463.06;5047748;28;20064;-40
2023/01/19 05:39:01;;;;;;;23.80;3.95;;;;;;;11.02;49.67;92476.63;5038739;28;20032;-40
2023/01/19 05:41:27;;;;;;;24.38;3.38;;;;;;;11.17;49.35;92476.38;5029952;28;20036;-40
2023/01/19 05:43:53;;;;;;;22.23;3.38;;;;;;;11.14;49.31;92466.47;5029801;28;20108;-40
2023/01/19 05:46:18;;;;;;;21.60;3.53;;;;;;;11.11;48.64;92467.66;5029268;28;20421;-39
2023/01/19 05:48:44;;;;;;;18.88;4.85;;;;;;;11.25;48.18;92471.47;5029027;28;20063;-40
2023/01/19 05:51:09;;;;;;;17.88;3.20;;;;;;;11.14;48.92;92478.28;5029330;28;20036;-40
2023/01/19 05:53:35;;;;;;;19.40;2.90;;;;;;;11.25;48.97;92474.97;5029889;28;20049;-40
2023/01/19 05:56:02;;;;;;;18.02;3.85;;;;;;;11.30;48.38;92470.47;5029380;28;20068;-40
2023/01/19 05:58:28;;;;;;;19.95;4.38;;;;;;;11.24;48.89;92472.78;5029618;28;20463;-40
2023/01/19 06:00:53;;;;;;;15.82;2.40;;;;;;;11.04;49.62;92471.25;5029345;28;20025;-40
2023/01/19 06:03:19;;;;;;;12.73;3.63;;;;;;;11.12;49.40;92480.16;5029081;28;20174;-39
2023/01/19 06:05:44;;;;;;;19.20;2.75;;;;;;;11.15;49.29;92467.94;5029325;28;20087;-40
2023/01/19 06:08:10;;;;;;;26.33;5.28;;;;;;;10.93;50.04;92471.78;5029285;28;20029;-40
2023/01/19 06:10:35;;;;;;;29.10;4.00;;;;;;;10.94;50.15;92467.69;5029428;28;20045;-40
2023/01/19 06:13:01;;;;;;;15.40;3.17;;;;;;;11.10;50.11;92463.41;5029039;28;20441;-40
2023/01/19 06:15:26;;;;;;;15.43;2.55;;;;;;;11.04;50.26;92465.72;5029408;28;20471;-40
2023/01/19 06:17:51;;;;;;;19.70;4.00;;;;;;;10.99;50.68;92461.91;5029144;28;20483;-40
2023/01/19 06:20:17;;;;;;;17.80;4.20;;;;;;;10.94;50.20;92456.66;5029091;28;20489;-40
2023/01/19 06:22:43;;;;;;;20.52;3.38;;;;;;;10.95;50.69;92460.88;5028868;28;20063;-40
2023/01/19 06:25:09;;;;;;;15.82;3.53;;;;;;;10.96;50.75;92465.81;5029070;28;20037;-40
2023/01/19 06:27:35;;;;;;;15.82;3.20;;;;;;;11.17;50.10;92468.84;5029110;28;20036;-40
2023/01/19 06:30:01;;;;;;;22.95;3.13;;;;;;;11.02;50.73;92469.03;5029098;28;20040;-40
2023/01/19 06:32:26;;;;;;;19.75;3.22;;;;;;;11.18;50.36;92472.31;5028851;28;20044;-40
2023/01/19 06:34:52;;;;;;;25.88;3.88;;;;;;;11.08;51.00;92468.78;5028866;28;20079;-40
2023/01/19 06:37:17;;;;;;;22.02;3.33;;;;;;;11.17;50.95;92479.16;5028693;28;20033;-40
2023/01/19 06:39:44;;;;;;;31.80;4.00;;;;;;;11.25;50.65;92480.50;5028671;28;20029;-40
2023/01/19 06:42:10;;;;;;;20.55;4.72;;;;;;;11.13;51.16;92484.38;5029266;28;20029;-40
2023/01/19 06:44:35;;;;;;;13.68;3.33;;;;;;;11.37;50.25;92478.63;5028333;28;20465;-39
2023/01/19 06:47:01;;;;;;;18.55;3.70;;;;;;;11.32;50.81;92487.22;5028634;28;20021;-40
2023/01/19 06:49:26;;;;;;;29.52;4.68;;;;;;;11.38;50.46;92482.13;5028748;28;20037;-40
2023/01/19 06:51:51;;;;;;;20.92;4.90;;;;;;;11.44;50.35;92488.09;5028479;28;20033;-40
2023/01/19 06:54:17;;;;;;;28.98;6.18;;;;;;;11.47;50.28;92491.75;5029263;28;20033;-40
2023/01/19 06:56:42;;;;;;;20.92;6.25;;;;;;;11.37;50.39;92469.59;5028670;28;20048;-40
2023/01/19 06:59:08;;;;;;;14.50;4.50;;;;;;;11.79;49.29;92480.34;5029044;28;20033;-40
2023/01/19 07:01:34;;;;;;;14.65;3.28;;;;;;;11.92;48.63;92468.88;5032591;28;20040;-40
2023/01/19 07:04:00;;;;;;;23.58;4.35;;;;;;;12.02;48.58;92478.63;5032575;28;20025;-40
2023/01/19 07:06:25;;;;;;;13.98;4.00;;;;;;;12.31;48.09;92484.19;5032771;28;20025;-40
2023/01/19 07:08:50;;;;;;;14.50;4.50;;;;;;;12.39;47.93;92472.97;5032608;28;20033;-40
2023/01/19 07:11:16;;;;;;;14.65;3.03;;;;;;;12.74;46.48;92468.53;5032461;28;20026;-40
2023/01/19 07:13:43;;;;;;;21.52;4.40;;;;;;;13.32;45.59;92472.59;5032249;28;20029;-40
2023/01/19 07:16:12;;;;;;;32.47;4.85;;;;;;;13.59;44.64;92472.31;5032541;28;20036;-40
2023/01/19 07:18:39;;;;;;;17.08;4.10;;;;;;;13.52;44.79;92492.66;5032275;28;20665;-40
2023/01/19 07:21:05;;;;;;;25.45;4.32;;;;;;;13.85;44.28;92487.94;5032525;28;20056;-40
2023/01/19 07:23:30;;;;;;;18.52;3.78;;;;;;;14.15;43.38;92476.06;5031011;28;20565;-40
2023/01/19 07:25:56;;;;;;;25.70;3.90;;;;;;;14.27;42.72;92460.19;5012491;28;20038;-40
2023/01/19 07:28:22;;;;;;;19.80;3.97;;;;;;;14.57;42.43;92460.69;5012565;28;20508;-40
2023/01/19 07:30:51;;;;;;;34.65;5.18;;;;;;;14.47;42.36;92457.28;5012660;28;20034;-40
2023/01/19 07:33:17;;;;;;;;;;;;;;;14.84;41.75;92461.75;5013083;28;20024;-40
2023/01/19 07:35:49;;;;;;;26.70;4.53;;;;;;;15.26;40.82;92471.97;5033592;28;20003;-40
2023/01/19 07:38:15;;;;;;;25.27;6.22;;;;;;;15.30;40.52;92474.28;5047280;28;20447;-40
2023/01/19 07:40:40;;;;;;;19.05;4.30;;;;;;;15.23;40.78;92469.66;5032229;28;20086;-40
2023/01/19 07:43:06;;;;;;;28.85;4.32;;;;;;;14.97;40.73;92460.44;5031680;28;20485;-40
2023/01/19 07:45:31;;;;;;;31.08;4.88;;;;;;;14.94;41.06;92458.88;5031680;28;20029;-40
2023/01/19 07:47:57;;;;;;;24.83;4.25;;;;;;;15.04;40.08;92468.56;5031950;28;20033;-40
2023/01/19 07:50:24;;;;;;;29.02;6.75;;;;;;;15.40;39.48;92455.44;5032040;28;20033;-40
2023/01/19 07:52:52;;;;;;;30.08;7.15;;;;;;;15.97;38.17;92454.69;5031935;28;20033;-41
2023/01/19 07:55:18;;;;;;;30.67;4.55;;;;;;;15.65;38.41;92463.91;5031593;28;20034;-40
2023/01/19 07:57:44;;;;;;;34.75;6.40;;;;;;;15.70;38.40;92452.41;5031825;28;20018;-41
2023/01/19 08:00:10;;;;;;;30.67;5.18;;;;;;;15.79;37.87;92468.25;5032078;28;20555;-41
2023/01/19 08:02:36;;;;;;;30.38;4.78;;;;;;;15.86;37.55;92466.56;5031701;28;20421;-40
2023/01/19 08:05:02;;;;;;;41.40;5.75;;;;;;;16.63;36.55;92464.06;5031512;28;20497;-40
2023/01/19 08:07:28;;;;;;;36.78;7.38;;;;;;;16.83;36.00;92464.47;5031778;28;20033;-40
2023/01/19 08:09:53;;;;;;;24.88;4.45;;;;;;;17.47;34.57;92463.72;5031716;28;20029;-41
2023/01/19 08:12:19;;;;;;;28.40;5.60;;;;;;;17.43;34.39;92458.66;5030593;28;20591;-40
2023/01/19 08:14:44;;;;;;;37.72;6.22;;;;;;;17.69;34.31;92462.84;5031721;28;20405;-40
2023/01/19 08:17:12;;;;;;;35.33;6.57;;;;;;;18.15;33.88;92451.25;5031516;28;20029;-40
2023/01/19 08:19:37;;;;;;;36.95;4.97;;;;;;;18.82;30.95;92485.28;5037342;28;20041;-40
2023/01/19 08:22:03;;;;;;;39.05;5.45;;;;;;;18.87;31.34;92454.09;5051560;28;20029;-41
2023/01/19 08:24:28;;;;;;;25.75;5.65;;;;;;;18.99;31.55;92465.16;5042983;28;20025;-41
2023/01/19 08:26:58;;;;;;;37.05;6.68;;;;;;;18.40;32.31;92453.19;5030985;28;20025;-41
2023/01/19 08:29:24;;;;;;;26.77;5.65;;;;;;;18.84;30.20;92466.53;5031408;28;20029;-40
2023/01/19 08:31:51;;;;;;;45.95;7.95;;;;;;;18.98;30.49;92455.31;5030969;28;20037;-41
2023/01/19 08:34:17;;;;;;;36.25;5.75;;;;;;;19.68;30.21;92461.38;5031228;28;20030;-41
2023/01/19 08:36:42;;;;;;;35.63;6.65;;;;;;;19.43;30.13;92447.63;5049908;28;20537;-41
2023/01/19 08:39:11;;;;;;;44.83;7.47;;;;;;;20.30;29.02;92483.03;5038496;28;20029;-41
2023/01/19 08:41:36;;;;;;;39.25;6.43;;;;;;;20.19;28.46;92483.19;5030875;28;20036;-41
2023/01/19 08:44:02;;;;;;;25.42;5.03;;;;;;;20.63;28.20;92484.41;5030672;28;20033;-40
2023/01/19 08:46:27;;;;;;;45.25;7.57;;;;;;;19.63;28.70;92473.03;5030473;28;20053;-41
2023/01/19 08:48:53;;;;;;;35.60;6.22;;;;;;;19.82;29.00;92500.50;5030933;28;20513;-41
2023/01/19 08:51:19;;;;;;;36.97;5.45;;;;;;;19.98;28.52;92498.44;5030876;28;20033;-40
2023/01/19 08:53:44;;;;;;;25.52;6.20;;;;;;;19.97;28.70;92485.03;5030453;28;20029;-41
2023/01/19 08:56:11;;;;;;;28.60;6.95;;;;;;;20.37;28.27;92492.44;5031083;28;20036;-40
2023/01/19 08:58:40;;;;;;;30.10;6.13;;;;;;;20.86;27.89;92486.75;5030848;28;20421;-41
2023/01/19 09:01:07;;;;;;;18.38;4.60;;;;;;;20.62;27.48;92511.00;5030369;28;20099;-40
2023/01/19 09:03:33;;;;;;;23.13;4.95;;;;;;;20.69;27.63;92502.19;5030769;28;20037;-41
2023/01/19 09:05:59;;;;;;;20.25;5.22;;;;;;;19.69;29.27;92481.69;5030375;28;20060;-41
2023/01/19 09:08:24;;;;;;;35.88;8.00;;;;;;;19.86;29.47;92511.19;5029999;28;20040;-41
2023/01/19 09:10:50;;;;;;;31.08;5.97;;;;;;;20.18;28.28;92492.97;5029813;28;20112;-40
2023/01/19 09:13:17;;;;;;;37.28;6.28;;;;;;;20.28;28.50;92493.44;5029907;28;20029;-41
2023/01/19 09:15:43;;;;;;;34.47;5.65;;;;;;;21.10;27.43;92504.59;5030145;28;20025;-40
2023/01/19 09:18:14;;;;;;;38.20;5.82;;;;;;;20.84;27.37;92504.22;5030196;28;20021;-40
2023/01/19 09:20:41;;;;;;;30.85;5.80;;;;;;;20.74;28.50;92489.81;5044238;28;20036;-41
2023/01/19 09:23:12;;;;;;;37.80;6.07;;;;;;;21.01;27.91;92502.78;5049091;28;20021;-40
2023/01/19 09:25:38;;;;;;;31.98;7.78;;;;;;;21.53;26.49;92495.75;5032809;28;20501;-41
2023/01/19 09:28:06;;;;;;;27.48;6.00;;;;;;;21.35;26.64;92495.78;5030199;28;20075;-41
2023/01/19 09:30:32;;;;;;;38.37;5.83;;;;;;;21.30;26.36;92496.25;5030368;28;20032;-40
2023/01/19 09:33:07;;;;;;;24.58;5.18;;;;;;;21.55;26.46;92481.81;5030361;28;20879;-41
2023/01/19 09:35:33;;;;;;;34.03;6.55;;;;;;;21.32;27.17;92490.72;5039113;28;20049;-41
2023/01/19 09:37:59;;;;;;;36.65;6.97;;;;;;;20.99;27.53;92483.81;5047125;28;20021;-41
2023/01/19 09:40:25;;;;;;;39.92;6.38;;;;;;;21.69;26.24;92471.81;5030106;28;20021;-41
2023/01/19 09:42:55;;;;;;;33.40;5.70;;;;;;;22.49;25.60;92490.19;5029609;28;20067;-41
2023/01/19 09:45:38;;;;;;;30.98;5.32;;;;;;;22.20;25.61;92496.88;5029675;28;20107;-41
2023/01/19 09:48:21;;;;;;;33.20;6.18;;;;;;;22.23;25.76;92486.44;5028265;28;20040;-41
2023/01/19 09:50:47;;;;;;;29.00;5.13;;;;;;;21.29;26.58;92480.78;5029608;28;20029;-41
2023/01/19 09:53:17;;;;;;;36.33;5.55;;;;;;;21.30;26.44;92473.78;5029787;28;20025;-41
2023/01/19 09:55:43;;;;;;;24.17;6.15;;;;;;;21.80;26.31;92464.47;5028441;28;20041;-40
2023/01/19 09:58:12;;;;;;;29.40;4.50;;;;;;;22.16;25.86;92457.38;5028709;28;20107;-40
2023/01/19 10:00:38;;;;;;;32.05;5.97;;;;;;;22.11;26.00;92441.03;5028403;28;20126;-41
2023/01/19 10:03:10;;;;;;;38.38;5.60;;;;;;;21.70;26.31;92447.25;5027896;28;20501;-40
2023/01/19 10:05:43;;;;;;;34.70;6.43;;;;;;;22.49;26.09;92450.81;5029227;28;20041;-41
2023/01/19 10:08:38;;;;;;;25.80;4.75;;;;;;;22.30;25.71;92448.75;5028059;28;20514;-41
2023/01/19 10:11:28;;;;;;;31.77;6.07;;;;;;;21.60;25.83;92452.50;4992190;28;20061;-41
2023/01/19 10:13:54;;;;;;;21.08;4.50;;;;;;;21.48;25.29;92472.44;5027914;28;20108;-41
2023/01/19 10:16:44;;;;;;;38.67;5.93;;;;;;;21.97;25.05;92460.19;5027919;28;20029;-41
2023/01/19 10:19:24;;;;;;;18.92;5.07;;;;;;;22.53;23.71;92445.31;5031347;28;20041;-41
2023/01/19 10:21:50;;;;;;;24.33;4.50;;;;;;;23.14;23.65;92445.22;5047998;28;20032;-41
2023/01/19 10:24:33;;;;;;;23.35;4.65;;;;;;;23.18;23.19;92448.16;5041461;28;20025;-41
2023/01/19 10:26:59;;;;;;;20.50;4.50;;;;;;;22.60;23.31;92449.81;5028231;28;20518;-41
2023/01/19 10:29:25;;;;;;;27.92;5.95;;;;;;;23.00;23.18;92451.13;5029005;28;20035;-41
2023/01/19 10:31:51;;;;;;;23.33;5.28;;;;;;;23.09;23.39;92443.66;5029122;28;20104;-41
2023/01/19 10:34:22;;;;;;;31.67;5.65;;;;;;;24.63;22.49;92427.75;5029066;28;20028;-41
2023/01/19 10:36:49;;;;;;;28.98;4.97;;;;;;;24.13;22.57;92422.88;5048389;28;20090;-41
2023/01/19 10:39:17;;;;;;;22.02;4.50;;;;;;;23.56;22.37;92435.31;5034088;28;20819;-41
2023/01/19 10:41:49;;;;;;;39.50;6.10;;;;;;;22.11;25.46;92441.03;5029315;28;20029;-41
2023/01/19 10:44:28;;;;;;;24.23;5.72;;;;;;;22.53;25.79;92429.16;5028476;28;20126;-41
2023/01/19 10:46:56;;;;;;;24.73;4.05;;;;;;;22.64;24.39;92427.44;5027072;28;20029;-41
2023/01/19 10:49:38;;;;;;;30.08;4.93;;;;;;;22.78;24.86;92421.56;5028786;28;20036;-41
2023/01/19 10:52:05;;;;;;;34.47;6.13;;;;;;;23.88;23.99;92413.72;5027356;28;20030;-41
2023/01/19 10:54:32;;;;;;;28.70;5.15;;;;;;;24.08;22.46;92408.63;5027385;28;20045;-41
2023/01/19 10:57:03;;;;;;;22.00;4.43;;;;;;;25.19;21.61;92422.81;5027532;28;20116;-41
2023/01/19 10:59:52;;;;;;;24.88;5.03;;;;;;;23.75;23.46;92425.28;5028924;28;20029;-40
2023/01/19 11:02:26;;;;;;;;;;;;;;;23.73;22.35;92425.22;5029106;28;20037;-41
2023/01/19 11:04:58;;;;;;;19.40;4.43;;;;;;;23.44;22.36;92415.22;5028859;28;19909;-40
2023/01/19 11:07:26;;;;;;;17.42;4.20;;;;;;;23.62;21.92;92429.84;5028924;28;20497;-41
2023/01/19 11:10:16;;;;;;;25.70;4.07;;;;;;;23.24;22.56;92425.81;5028698;28;20030;-40
2023/01/19 11:12:54;;;;;;;19.77;4.05;;;;;;;22.43;23.65;92433.72;5028573;28;20036;-41
2023/01/19 11:15:27;;;;;;;21.35;4.47;;;;;;;23.30;21.89;92423.91;5027085;28;20033;-41
2023/01/19 11:17:53;;;;;;;17.42;3.55;;;;;;;23.21;22.65;92424.34;5028928;28;20061;-40
2023/01/19 11:20:28;;;;;;;20.13;4.20;;;;;;;23.14;22.71;92422.72;5038944;28;20474;-41
2023/01/19 11:23:28;;;;;;;17.33;3.35;;;;;;;23.15;22.98;92426.97;5047007;28;20060;-41
2023/01/19 11:25:56;;;;;;;16.67;3.28;;;;;;;23.82;21.83;92419.16;5029109;28;20026;-41
2023/01/19 11:28:35;;;;;;;20.83;4.15;;;;;;;22.77;23.51;92417.28;5027390;28;20032;-41
2023/01/19 11:31:13;;;;;;;28.80;5.43;;;;;;;23.19;22.31;92415.84;5028570;28;20050;-41
2023/01/19 11:33:47;;;;;;;;;;;;;;;23.00;22.32;92422.97;5029164;28;20033;-41
2023/01/19 11:36:19;;;;;;;21.25;3.75;;;;;;;22.15;23.35;92425.03;5041717;28;20471;-41
2023/01/19 11:38:50;;;;;;;23.48;3.92;;;;;;;22.74;22.99;92416.50;5039110;28;20798;-41